Time;durP1;ratioP1;P1;durP2;ratioP2;P2;SDS_P1;SDS_P2;PMS_P1;PMS_P2;Temp;Humidity;BMP_temperature;BMP_pressure;BME280_temperature;BME280_humidity;BME280_pressure;Samples;Min_cycle;Max_cycle;Signal;HPM_P1;HPM_P2
2023/02/01 00:00:21;;;;;;;15.60;15.10;;;20.90;45.40;;;;;;5074121;28;20537;-57
2023/02/01 00:02:48;;;;;;;15.70;15.20;;;20.90;45.40;;;;;;5074464;28;20439;-58
2023/02/01 00:05:15;;;;;;;16.00;15.50;;;20.80;45.30;;;;;;5074190;28;20470;-60
2023/02/01 00:07:42;;;;;;;16.07;15.60;;;20.90;45.40;;;;;;5073401;28;20518;-58
2023/02/01 00:10:10;;;;;;;16.20;15.70;;;20.80;45.30;;;;;;5074492;28;21000;-59
2023/02/01 00:12:37;;;;;;;16.70;16.20;;;20.90;45.40;;;;;;5074593;28;20454;-58
2023/02/01 00:15:04;;;;;;;16.20;15.70;;;20.90;45.40;;;;;;5075017;28;20550;-60
2023/02/01 00:17:32;;;;;;;15.70;15.23;;;20.80;45.30;;;;;;5072338;28;20475;-58
2023/02/01 00:19:59;;;;;;;17.13;16.53;;;20.80;45.30;;;;;;5057114;28;20515;-58
2023/02/01 00:22:26;;;;;;;16.63;16.03;;;20.90;45.40;;;;;;5057090;28;20542;-57
2023/02/01 00:24:53;;;;;;;16.57;16.07;;;20.90;45.40;;;;;;5056777;28;20516;-58
2023/02/01 00:27:21;;;;;;;15.97;15.47;;;20.90;45.40;;;;;;5057531;28;20551;-61
2023/02/01 00:29:48;;;;;;;16.43;15.83;;;20.80;45.30;;;;;;5055716;28;20470;-62
2023/02/01 00:32:15;;;;;;;16.43;15.93;;;20.80;45.40;;;;;;5053814;28;20973;-59
2023/02/01 00:34:43;;;;;;;16.50;15.90;;;20.80;45.40;;;;;;5053311;28;20448;-60
2023/02/01 00:37:10;;;;;;;16.40;15.80;;;20.80;45.40;;;;;;5053180;28;21068;-63
2023/02/01 00:39:36;;;;;;;16.13;15.63;;;20.80;45.40;;;;;;5054148;28;20535;-63
2023/02/01 00:42:03;;;;;;;16.93;16.43;;;20.80;45.40;;;;;;5053209;28;20531;-63
2023/02/01 00:44:33;;;;;;;16.13;15.63;;;20.80;45.50;;;;;;5053287;28;20447;-63
2023/02/01 00:47:00;;;;;;;16.13;15.63;;;20.80;45.40;;;;;;5052980;28;20543;-62
2023/02/01 00:49:27;;;;;;;16.37;15.87;;;20.80;45.40;;;;;;5052645;28;20448;-60
2023/02/01 00:51:56;;;;;;;16.43;15.83;;;20.80;45.50;;;;;;5052998;28;20440;-63
2023/02/01 00:54:22;;;;;;;16.10;15.60;;;20.80;45.50;;;;;;5052974;28;20454;-62
2023/02/01 00:56:49;;;;;;;16.77;16.13;;;20.80;45.50;;;;;;5052827;28;20489;-62
2023/02/01 00:59:16;;;;;;;17.00;16.23;;;20.80;45.50;;;;;;5052440;28;20888;-60
2023/02/01 01:01:43;;;;;;;16.23;15.73;;;20.80;45.50;;;;;;5052984;28;20443;-62
2023/02/01 01:04:10;;;;;;;16.03;15.50;;;20.80;45.60;;;;;;5052757;28;20447;-62
2023/02/01 01:06:37;;;;;;;16.33;15.73;;;20.80;45.50;;;;;;5052806;28;20444;-62
2023/02/01 01:09:08;;;;;;;16.10;15.60;;;20.80;45.60;;;;;;5053018;28;20466;-61
2023/02/01 01:11:36;;;;;;;16.30;15.70;;;20.80;45.50;;;;;;5033050;28;20441;-63
2023/02/01 01:14:04;;;;;;;16.30;15.80;;;20.80;45.60;;;;;;5032942;28;20449;-62
2023/02/01 01:16:32;;;;;;;15.80;15.30;;;20.80;45.50;;;;;;5032818;28;20449;-61
2023/02/01 01:19:00;;;;;;;16.23;15.73;;;20.80;45.50;;;;;;5032597;28;20484;-60
2023/02/01 01:21:27;;;;;;;16.80;16.20;;;20.80;45.60;;;;;;5049774;28;20454;-62
2023/02/01 01:23:54;;;;;;;15.67;15.20;;;20.80;45.60;;;;;;5052491;28;20813;-62
2023/02/01 01:26:25;;;;;;;15.83;15.43;;;20.80;45.60;;;;;;5052444;28;20454;-62
2023/02/01 01:28:52;;;;;;;16.53;16.03;;;20.80;45.60;;;;;;5052229;28;20460;-62
2023/02/01 01:31:20;;;;;;;15.73;15.23;;;20.80;45.60;;;;;;5053494;28;20448;-63
2023/02/01 01:33:49;;;;;;;16.00;15.50;;;20.70;45.50;;;;;;5052603;28;20459;-62
2023/02/01 01:36:16;;;;;;;16.40;15.90;;;20.70;45.50;;;;;;5051730;28;20450;-56
2023/02/01 01:38:43;;;;;;;16.27;15.77;;;20.70;45.60;;;;;;5051817;28;20490;-60
2023/02/01 01:41:14;;;;;;;16.20;15.70;;;20.70;45.50;;;;;;5057240;28;20486;-59
2023/02/01 01:43:51;;;;;;;16.43;15.93;;;20.70;45.60;;;;;;5072076;28;20447;-59
2023/02/01 01:46:20;;;;;;;16.00;15.50;;;20.70;45.60;;;;;;5072028;28;20447;-60
2023/02/01 01:48:50;;;;;;;16.40;15.80;;;20.70;45.60;;;;;;5071703;28;20463;-56
2023/02/01 01:51:21;;;;;;;16.80;16.10;;;20.70;45.60;;;;;;5068247;28;20440;-56
2023/02/01 01:53:54;;;;;;;16.20;15.70;;;20.70;45.60;;;;;;5051927;28;20454;-60
2023/02/01 01:56:21;;;;;;;16.27;15.77;;;20.80;46.10;;;;;;5051875;28;20465;-60
2023/02/01 01:58:49;;;;;;;16.00;15.50;;;20.70;45.60;;;;;;5051481;28;20583;-58
2023/02/01 02:01:16;;;;;;;15.70;15.30;;;20.70;45.60;;;;;;5051727;28;20440;-59
2023/02/01 02:03:45;;;;;;;16.30;15.80;;;20.70;45.60;;;;;;5064820;28;20444;-59
2023/02/01 02:06:19;;;;;;;16.40;15.83;;;20.70;45.60;;;;;;5051813;28;20913;-59
2023/02/01 02:08:46;;;;;;;16.57;15.97;;;20.70;45.60;;;;;;5051571;28;20464;-62
2023/02/01 02:11:15;;;;;;;16.13;15.63;;;20.70;45.70;;;;;;5051535;28;20450;-57
2023/02/01 02:13:46;;;;;;;16.43;15.93;;;20.70;45.60;;;;;;5069040;28;20439;-59
2023/02/01 02:16:38;;;;;;;15.97;15.37;;;20.70;45.70;;;;;;5071647;28;20457;-58
2023/02/01 02:19:44;;;;;;;16.30;15.63;;;20.70;45.70;;;;;;5071455;28;20487;-59
2023/02/01 02:22:30;;;;;;;15.50;15.03;;;20.70;45.70;;;;;;5069581;28;20446;-58
2023/02/01 02:25:30;;;;;;;16.50;15.90;;;20.70;45.70;;;;;;5052235;28;20448;-59
2023/02/01 02:28:07;;;;;;;16.30;15.80;;;20.70;45.70;;;;;;5045594;28;21026;-58
2023/02/01 02:31:00;;;;;;;15.70;15.20;;;20.70;45.70;;;;;;5051330;28;20797;-58
2023/02/01 02:33:48;;;;;;;16.80;16.30;;;20.70;45.80;;;;;;5052684;28;20440;-58
2023/02/01 02:36:21;;;;;;;16.00;15.50;;;20.70;45.80;;;;;;5051467;28;20444;-61
2023/02/01 02:38:56;;;;;;;16.37;15.77;;;20.70;45.80;;;;;;5051131;28;20488;-58
2023/02/01 02:47:27;;;;;;;17.07;16.50;;;20.70;45.80;;;;;;5031356;28;21045;-58
2023/02/01 02:55:40;;;;;;;15.87;15.37;;;20.70;45.80;;;;;;5071169;28;20443;-56
2023/02/01 03:06:26;;;;;;;16.33;15.83;;;20.70;45.80;;;;;;5073741;28;20430;-58
2023/02/01 03:08:57;;;;;;;16.40;15.80;;;20.70;45.80;;;;;;5074996;28;20467;-59
2023/02/01 03:12:55;;;;;;;17.07;16.50;;;20.70;45.80;;;;;;5075001;28;20444;-60
2023/02/01 03:14:15;;;;;;;16.87;16.37;;;20.70;45.80;;;;;;5074765;28;20801;-61
2023/02/01 03:16:48;;;;;;;16.37;15.77;;;20.60;45.70;;;;;;5072594;28;20446;-58
2023/02/01 03:19:20;;;;;;;16.03;15.43;;;20.70;45.80;;;;;;5074424;28;20573;-59
2023/02/01 03:21:53;;;;;;;16.57;16.07;;;20.70;45.80;;;;;;5074688;28;20481;-59
2023/02/01 03:24:32;;;;;;;15.93;15.43;;;20.60;45.70;;;;;;5074690;28;20439;-59
2023/02/01 03:27:05;;;;;;;15.73;15.23;;;20.60;45.60;;;;;;5072876;28;20451;-60
2023/02/01 03:29:38;;;;;;;16.40;15.90;;;20.70;45.70;;;;;;5074382;28;20450;-60
2023/02/01 03:32:05;;;;;;;16.23;15.73;;;20.70;45.70;;;;;;5074626;28;20801;-61
2023/02/01 03:34:32;;;;;;;16.47;15.87;;;20.70;45.70;;;;;;5074527;28;20453;-59
2023/02/01 03:37:03;;;;;;;16.47;15.97;;;20.60;45.60;;;;;;5062027;28;20452;-60
2023/02/01 03:39:35;;;;;;;17.00;15.97;;;20.70;45.70;;;;;;5054281;28;20570;-58
2023/02/01 03:42:06;;;;;;;16.37;15.80;;;20.60;45.60;;;;;;5054515;28;20440;-61
2023/02/01 03:44:35;;;;;;;16.63;16.13;;;20.60;45.60;;;;;;5054527;28;20444;-60
2023/02/01 03:47:07;;;;;;;16.37;15.77;;;20.60;45.60;;;;;;5055438;28;20531;-59
2023/02/01 03:49:37;;;;;;;16.00;15.50;;;20.60;45.60;;;;;;5054047;28;20443;-59
2023/02/01 03:52:10;;;;;;;16.80;15.97;;;20.60;45.60;;;;;;5054202;28;20446;-59
2023/02/01 03:54:38;;;;;;;16.60;16.00;;;20.60;45.60;;;;;;5054315;28;20444;-57
2023/02/01 03:57:09;;;;;;;17.10;16.50;;;20.70;45.60;;;;;;5055099;28;20451;-59
2023/02/01 03:59:39;;;;;;;17.20;16.50;;;20.60;45.60;;;;;;5052960;28;20864;-60
2023/02/01 04:02:06;;;;;;;16.40;15.90;;;20.60;45.60;;;;;;5054082;28;20474;-60
2023/02/01 04:04:34;;;;;;;16.70;16.20;;;20.70;45.60;;;;;;5053923;28;20827;-61
2023/02/01 04:07:01;;;;;;;16.60;16.00;;;20.70;45.60;;;;;;5054202;28;20762;-59
2023/02/01 04:09:30;;;;;;;16.23;15.63;;;20.60;45.50;;;;;;5073659;28;20482;-60
2023/02/01 04:11:56;;;;;;;16.87;16.10;;;20.70;45.60;;;;;;5073779;28;20443;-59
2023/02/01 04:14:23;;;;;;;16.30;15.80;;;20.70;45.70;;;;;;5073833;28;20929;-58
2023/02/01 04:16:50;;;;;;;16.43;15.83;;;20.70;45.60;;;;;;5073554;28;20546;-60
2023/02/01 04:19:17;;;;;;;17.03;16.43;;;20.70;45.60;;;;;;5071940;28;21053;-56
2023/02/01 04:21:44;;;;;;;17.10;16.30;;;20.70;45.50;;;;;;5073575;28;20534;-60
2023/02/01 04:24:11;;;;;;;16.70;16.10;;;20.70;45.60;;;;;;5073628;28;20521;-58
2023/02/01 04:26:39;;;;;;;16.73;16.13;;;20.80;45.60;;;;;;5073433;28;20444;-59
2023/02/01 04:29:05;;;;;;;16.53;16.03;;;20.80;45.70;;;;;;5065298;28;20473;-58
2023/02/01 04:31:32;;;;;;;16.70;16.10;;;20.80;45.60;;;;;;5053352;28;20539;-61
2023/02/01 04:33:59;;;;;;;17.30;16.43;;;20.80;45.60;;;;;;5053408;28;20547;-57
2023/02/01 04:36:26;;;;;;;16.20;15.70;;;20.80;45.60;;;;;;5053408;28;20547;-58
2023/02/01 04:38:53;;;;;;;16.77;16.10;;;20.80;45.60;;;;;;5053980;28;21095;-58
2023/02/01 04:41:22;;;;;;;16.60;15.90;;;20.80;45.70;;;;;;5053287;28;20525;-57
2023/02/01 04:43:52;;;;;;;16.63;16.03;;;20.80;45.60;;;;;;5053168;28;20563;-58
2023/02/01 04:46:19;;;;;;;17.00;16.30;;;20.90;45.70;;;;;;5053412;28;20474;-58
2023/02/01 04:48:46;;;;;;;17.53;16.93;;;20.80;45.60;;;;;;5052966;28;20547;-63
2023/02/01 04:51:12;;;;;;;16.83;16.23;;;20.80;45.60;;;;;;5054010;28;20572;-60
2023/02/01 04:53:40;;;;;;;16.90;16.40;;;20.90;45.70;;;;;;5052940;28;20535;-57
2023/02/01 04:56:07;;;;;;;16.90;16.40;;;20.80;45.60;;;;;;5053020;28;20888;-58
2023/02/01 04:58:34;;;;;;;17.47;16.63;;;20.90;45.60;;;;;;5052864;28;20549;-58
2023/02/01 05:01:05;;;;;;;17.60;17.00;;;20.80;45.50;;;;;;5065025;28;20531;-59
2023/02/01 05:03:32;;;;;;;17.90;17.30;;;20.80;45.60;;;;;;5072780;28;20451;-60
2023/02/01 05:05:59;;;;;;;17.33;16.63;;;20.90;45.60;;;;;;5072749;28;20513;-59
2023/02/01 05:08:26;;;;;;;17.47;16.87;;;20.90;45.60;;;;;;5072627;28;20513;-56
2023/02/01 05:10:53;;;;;;;17.93;17.23;;;20.80;45.50;;;;;;5070204;28;20530;-62
2023/02/01 05:16:07;;;;;;;17.83;16.93;;;20.90;45.50;;;;;;5072696;28;20793;-59
2023/02/01 05:18:34;;;;;;;17.10;16.40;;;20.80;45.40;;;;;;5074978;22;20483;-61
2023/02/01 05:21:01;;;;;;;17.97;17.23;;;20.90;45.50;;;;;;5063256;28;20465;-59
2023/02/01 05:23:28;;;;;;;17.20;16.60;;;20.80;45.40;;;;;;5072471;28;20447;-59
2023/02/01 05:25:59;;;;;;;17.93;17.33;;;20.90;45.50;;;;;;5072280;28;20434;-60
2023/02/01 05:28:26;;;;;;;17.77;17.07;;;20.80;45.40;;;;;;5072489;28;20528;-58
2023/02/01 05:30:53;;;;;;;17.80;17.20;;;20.80;45.40;;;;;;5069927;28;20439;-59
2023/02/01 05:33:21;;;;;;;18.90;18.13;;;20.90;45.50;;;;;;5052374;28;20440;-60
2023/02/01 05:35:48;;;;;;;18.00;17.40;;;20.90;45.50;;;;;;5052673;28;20440;-61
2023/02/01 05:38:15;;;;;;;18.20;17.30;;;21.00;45.80;;;;;;5052283;28;20584;-59
2023/02/01 05:40:41;;;;;;;19.03;17.90;;;21.00;46.00;;;;;;5052263;28;20539;-58
2023/02/01 05:43:08;;;;;;;18.90;18.10;;;21.00;46.40;;;;;;5054868;28;20530;-61
2023/02/01 05:45:35;;;;;;;21.30;20.10;;;21.00;46.90;;;;;;5053853;28;20482;-61
2023/02/01 05:48:02;;;;;;;18.80;17.80;;;21.00;48.00;;;;;;5052220;28;20555;-61
2023/02/01 05:50:30;;;;;;;18.33;17.33;;;21.10;48.50;;;;;;5052019;28;20539;-61
2023/02/01 05:52:57;;;;;;;19.50;18.40;;;21.10;48.50;;;;;;5050914;28;20444;-62
2023/02/01 05:55:24;;;;;;;19.70;18.30;;;21.20;48.30;;;;;;5051734;28;20538;-62
2023/02/01 05:57:50;;;;;;;23.20;21.50;;;21.20;48.00;;;;;;5052482;28;21072;-62
2023/02/01 06:00:18;;;;;;;20.27;19.37;;;21.20;47.70;;;;;;5051449;28;20575;-62
2023/02/01 06:02:45;;;;;;;20.07;18.77;;;21.30;47.40;;;;;;5051793;28;20448;-62
2023/02/01 06:05:12;;;;;;;20.83;19.40;;;21.30;47.20;;;;;;5051805;28;20547;-62
2023/02/01 06:07:40;;;;;;;21.10;19.70;;;21.30;47.00;;;;;;5051534;28;20886;-60
2023/02/01 06:10:08;;;;;;;18.57;17.70;;;21.30;46.70;;;;;;5051439;28;20535;-61
2023/02/01 06:12:34;;;;;;;19.40;18.30;;;21.40;46.60;;;;;;5051636;28;20444;-61
2023/02/01 06:15:01;;;;;;;19.30;18.23;;;21.40;46.40;;;;;;5051652;28;20446;-62
2023/02/01 06:17:28;;;;;;;18.97;17.97;;;21.40;46.30;;;;;;5051738;28;20452;-62
2023/02/01 06:19:55;;;;;;;18.43;17.53;;;21.40;46.20;;;;;;5051180;28;21005;-60
2023/02/01 06:22:22;;;;;;;18.90;18.07;;;21.40;46.10;;;;;;5051205;28;20450;-62
2023/02/01 06:24:50;;;;;;;18.67;17.77;;;21.40;45.90;;;;;;5051527;28;20480;-61
2023/02/01 06:27:17;;;;;;;18.80;17.90;;;21.40;45.80;;;;;;5051438;28;20440;-62
2023/02/01 06:29:44;;;;;;;19.40;18.17;;;21.40;45.70;;;;;;5051227;28;20460;-59
2023/02/01 06:32:11;;;;;;;19.60;18.30;;;21.40;45.60;;;;;;5051810;28;20444;-61
2023/02/01 06:34:39;;;;;;;19.33;18.40;;;21.40;45.50;;;;;;5051454;28;20543;-62
2023/02/01 06:37:06;;;;;;;19.00;17.90;;;21.40;45.40;;;;;;5051499;28;20474;-62
2023/02/01 06:39:33;;;;;;;18.70;17.80;;;21.40;45.40;;;;;;5051263;28;20910;-60
2023/02/01 06:42:01;;;;;;;19.13;18.13;;;21.40;45.20;;;;;;5051306;28;20536;-61
2023/02/01 06:44:27;;;;;;;18.50;17.70;;;21.40;45.20;;;;;;5051353;28;20812;-62
2023/02/01 06:46:54;;;;;;;18.87;17.93;;;21.30;45.00;;;;;;5051428;28;20531;-60
2023/02/01 06:49:21;;;;;;;18.33;17.53;;;21.30;45.00;;;;;;5051107;28;20456;-60
2023/02/01 06:51:48;;;;;;;19.83;18.80;;;21.30;45.00;;;;;;5051269;28;20448;-60
2023/02/01 06:54:15;;;;;;;18.43;17.47;;;21.30;44.90;;;;;;5051268;28;20880;-59
2023/02/01 06:56:42;;;;;;;18.77;17.97;;;21.40;45.00;;;;;;5051118;28;20444;-60
2023/02/01 06:59:12;;;;;;;19.27;18.27;;;21.40;44.90;;;;;;5050968;28;20579;-62
2023/02/01 07:01:38;;;;;;;18.73;17.93;;;21.40;44.80;;;;;;5051262;28;20449;-61
2023/02/01 07:04:05;;;;;;;19.60;18.77;;;21.40;44.80;;;;;;5051441;28;20440;-59
2023/02/01 07:06:32;;;;;;;19.87;18.60;;;21.40;44.80;;;;;;5051320;28;20445;-59
2023/02/01 07:09:00;;;;;;;18.90;18.10;;;21.40;44.80;;;;;;5050911;28;20482;-59
2023/02/01 07:11:28;;;;;;;19.63;18.77;;;21.40;44.70;;;;;;5050982;28;20451;-60
2023/02/01 07:13:55;;;;;;;18.60;17.87;;;21.40;44.70;;;;;;5051183;28;20920;-62
2023/02/01 07:16:23;;;;;;;18.97;18.00;;;21.40;44.60;;;;;;5051066;28;20451;-61
2023/02/01 07:18:52;;;;;;;19.63;18.73;;;21.40;44.60;;;;;;5050562;28;20488;-61
2023/02/01 07:21:19;;;;;;;18.83;17.93;;;21.40;44.60;;;;;;5050957;28;20885;-61
2023/02/01 07:23:45;;;;;;;19.30;18.43;;;21.40;44.60;;;;;;5051005;28;20451;-59
2023/02/01 07:26:16;;;;;;;19.60;18.60;;;21.50;44.60;;;;;;5050986;28;20801;-61
2023/02/01 07:28:43;;;;;;;18.83;17.83;;;21.40;44.50;;;;;;5050906;28;20567;-62
2023/02/01 07:31:13;;;;;;;18.23;17.53;;;21.40;44.40;;;;;;5050794;28;20530;-60
2023/02/01 07:33:41;;;;;;;19.00;18.10;;;21.50;44.40;;;;;;5050885;28;20535;-59
2023/02/01 07:36:12;;;;;;;18.70;17.87;;;21.50;44.40;;;;;;5053488;28;20832;-59
2023/02/01 07:38:39;;;;;;;20.30;19.40;;;21.50;44.30;;;;;;5054519;28;20550;-61
2023/02/01 07:41:07;;;;;;;18.90;18.10;;;21.50;44.30;;;;;;5054376;28;20488;-58
2023/02/01 07:43:35;;;;;;;18.40;17.60;;;21.50;44.20;;;;;;5054331;28;20514;-61
2023/02/01 07:46:03;;;;;;;18.60;17.80;;;21.50;44.20;;;;;;5054176;28;20535;-61
2023/02/01 07:48:30;;;;;;;18.27;17.57;;;21.50;44.10;;;;;;5054228;28;20474;-61
2023/02/01 07:51:03;;;;;;;19.67;18.87;;;21.50;44.10;;;;;;5053973;28;20981;-62
2023/02/01 07:53:32;;;;;;;19.23;18.23;;;21.50;44.10;;;;;;5054136;28;20815;-61
2023/02/01 07:55:59;;;;;;;18.77;17.90;;;21.50;44.00;;;;;;5054182;28;20446;-60
2023/02/01 07:58:26;;;;;;;17.90;17.23;;;21.50;44.00;;;;;;5053996;28;20463;-62
2023/02/01 08:03:39;;;;;;;18.70;17.90;;;21.50;43.90;;;;;;5054320;28;20419;-61
2023/02/01 08:06:08;;;;;;;18.80;18.10;;;21.50;43.90;;;;;;5053959;28;20456;-61
2023/02/01 08:08:35;;;;;;;19.37;18.57;;;21.50;43.80;;;;;;5053735;28;20466;-60
2023/02/01 08:11:03;;;;;;;18.57;17.87;;;21.50;43.80;;;;;;5053659;28;20466;-59
2023/02/01 08:13:30;;;;;;;19.13;18.33;;;21.50;43.80;;;;;;5053791;28;20518;-61
2023/02/01 08:15:59;;;;;;;19.13;18.43;;;21.50;43.80;;;;;;5053780;28;20810;-61
2023/02/01 08:18:26;;;;;;;18.17;17.53;;;21.50;43.80;;;;;;5053707;28;20654;-62
2023/02/01 08:20:53;;;;;;;20.27;19.37;;;21.50;43.80;;;;;;5053392;28;20490;-59
2023/02/01 08:23:21;;;;;;;19.93;19.00;;;21.50;43.80;;;;;;5053650;28;20867;-60
2023/02/01 08:25:48;;;;;;;18.93;18.07;;;21.50;43.80;;;;;;5053485;28;20444;-60
2023/02/01 08:28:15;;;;;;;19.93;18.97;;;21.50;43.80;;;;;;5053420;28;20499;-60
2023/02/01 08:30:42;;;;;;;18.80;18.10;;;21.50;43.80;;;;;;5053175;28;20815;-61
2023/02/01 08:33:10;;;;;;;18.50;17.87;;;21.50;43.80;;;;;;5053483;28;20448;-60
2023/02/01 08:35:38;;;;;;;18.10;17.40;;;21.40;43.70;;;;;;5053347;28;20448;-61
2023/02/01 08:38:05;;;;;;;18.00;17.20;;;21.50;43.80;;;;;;5053178;28;20474;-61
2023/02/01 08:40:34;;;;;;;18.20;17.50;;;21.50;43.80;;;;;;5053019;28;20568;-62
2023/02/01 08:43:01;;;;;;;18.40;17.70;;;21.50;43.80;;;;;;5053406;28;20450;-62
2023/02/01 08:45:29;;;;;;;18.00;17.30;;;21.50;43.80;;;;;;5053026;28;20445;-62
2023/02/01 08:47:57;;;;;;;18.70;17.60;;;21.40;43.70;;;;;;5053084;28;20472;-61
2023/02/01 08:50:25;;;;;;;19.30;18.60;;;21.40;43.70;;;;;;5052858;28;20864;-59
2023/02/01 08:52:51;;;;;;;17.90;17.30;;;21.50;43.80;;;;;;5053114;28;20447;-62
2023/02/01 08:55:19;;;;;;;19.37;18.47;;;21.50;43.70;;;;;;5052955;28;20815;-61
2023/02/01 08:57:47;;;;;;;18.23;17.50;;;21.40;43.70;;;;;;5052937;28;20459;-61
2023/02/01 09:00:16;;;;;;;18.20;17.50;;;21.50;43.70;;;;;;5052582;28;20526;-61
2023/02/01 09:02:43;;;;;;;19.00;18.13;;;21.50;43.60;;;;;;5053192;28;20446;-61
2023/02/01 09:05:10;;;;;;;18.10;17.40;;;21.50;43.60;;;;;;5052946;28;20467;-61
2023/02/01 09:07:37;;;;;;;18.40;17.70;;;21.50;43.60;;;;;;5052678;28;21103;-60
2023/02/01 09:10:05;;;;;;;19.10;18.30;;;21.50;43.60;;;;;;5052401;28;20812;-60
2023/02/01 09:12:33;;;;;;;18.37;17.73;;;21.50;43.60;;;;;;5052970;28;20531;-62
2023/02/01 09:15:02;;;;;;;19.23;18.50;;;21.50;43.50;;;;;;5052697;28;20452;-62
2023/02/01 09:17:30;;;;;;;18.83;18.13;;;21.50;43.50;;;;;;5052552;28;20941;-62
2023/02/01 09:19:57;;;;;;;18.33;17.63;;;21.50;43.50;;;;;;5052159;28;20574;-60
2023/02/01 09:22:24;;;;;;;18.27;17.57;;;21.50;43.50;;;;;;5052443;28;20452;-62
2023/02/01 09:24:50;;;;;;;18.70;17.90;;;21.50;43.40;;;;;;5052452;28;20501;-59
2023/02/01 09:27:17;;;;;;;18.43;17.83;;;21.50;43.50;;;;;;5052461;28;20527;-60
2023/02/01 09:29:44;;;;;;;19.60;18.73;;;21.50;43.40;;;;;;5052097;28;20486;-62
2023/02/01 09:32:12;;;;;;;18.57;17.87;;;21.50;43.40;;;;;;5052729;28;20535;-61
2023/02/01 09:34:39;;;;;;;18.77;18.07;;;21.50;43.40;;;;;;5052320;28;20544;-60
2023/02/01 09:37:06;;;;;;;18.80;18.10;;;21.50;43.40;;;;;;5052183;28;20535;-61
2023/02/01 09:39:33;;;;;;;18.40;17.67;;;21.50;43.40;;;;;;5051909;28;20579;-62
2023/02/01 09:42:11;;;;;;;18.53;17.83;;;21.50;43.40;;;;;;5052098;28;20535;-62
2023/02/01 09:44:58;;;;;;;19.23;18.50;;;21.50;43.40;;;;;;5052076;28;20449;-61
2023/02/01 09:47:27;;;;;;;18.63;17.93;;;21.50;43.30;;;;;;5052155;28;20440;-62
2023/02/01 09:50:00;;;;;;;18.23;17.43;;;21.60;43.40;;;;;;5052009;28;20468;-61
2023/02/01 09:52:35;;;;;;;18.57;17.77;;;21.60;43.40;;;;;;5051981;28;20440;-62
2023/02/01 09:55:08;;;;;;;18.40;17.70;;;21.50;43.30;;;;;;5052031;28;20482;-62
2023/02/01 09:57:46;;;;;;;18.97;18.27;;;21.60;43.40;;;;;;5051246;28;20532;-62
2023/02/01 10:00:21;;;;;;;18.30;17.60;;;21.60;43.30;;;;;;5051690;28;20549;-60
2023/02/01 10:02:50;;;;;;;18.50;17.80;;;21.60;43.30;;;;;;5052123;28;20451;-61
2023/02/01 10:05:31;;;;;;;19.43;18.57;;;21.50;43.20;;;;;;5051693;28;20466;-61
2023/02/01 10:08:04;;;;;;;18.50;17.70;;;21.60;43.20;;;;;;5051836;28;20482;-62
2023/02/01 10:10:36;;;;;;;18.20;17.50;;;21.60;43.20;;;;;;5051535;28;20952;-61
2023/02/01 10:13:33;;;;;;;20.10;19.30;;;21.60;43.20;;;;;;5051680;28;20436;-61
2023/02/01 10:16:15;;;;;;;20.30;18.80;;;21.60;43.20;;;;;;5051926;28;20440;-61
2023/02/01 10:18:57;;;;;;;19.20;18.40;;;21.60;43.20;;;;;;5051374;28;20836;-61
2023/02/01 10:21:41;;;;;;;18.60;17.83;;;21.60;43.10;;;;;;5051469;28;20506;-61
2023/02/01 10:24:38;;;;;;;19.30;18.40;;;21.60;43.20;;;;;;5051675;28;20447;-59
2023/02/01 10:27:13;;;;;;;19.50;18.80;;;21.60;43.20;;;;;;5046930;28;20570;-59
2023/02/01 10:29:42;;;;;;;19.30;18.37;;;21.60;43.20;;;;;;5051217;28;20812;-61
2023/02/01 10:32:15;;;;;;;19.23;18.43;;;21.60;43.10;;;;;;5051469;28;20938;-59
2023/02/01 10:34:47;;;;;;;19.43;18.63;;;21.60;43.20;;;;;;5051485;28;20447;-62
2023/02/01 10:37:24;;;;;;;19.20;18.50;;;21.60;43.10;;;;;;5051664;28;20472;-59
2023/02/01 10:39:54;;;;;;;19.57;18.77;;;21.60;43.10;;;;;;5051118;28;20490;-60
2023/02/01 10:42:25;;;;;;;19.97;19.13;;;21.60;43.10;;;;;;5051375;28;20444;-59
2023/02/01 10:44:52;;;;;;;19.57;18.73;;;21.60;43.10;;;;;;5051484;28;20444;-59
2023/02/01 10:47:19;;;;;;;18.97;18.27;;;21.60;43.10;;;;;;5051421;28;20474;-58
2023/02/01 10:49:55;;;;;;;19.20;18.30;;;21.60;43.10;;;;;;5051058;28;20470;-61
2023/02/01 10:52:32;;;;;;;18.97;18.27;;;21.60;43.00;;;;;;5051340;28;20443;-58
2023/02/01 10:55:34;;;;;;;19.20;18.40;;;21.60;43.10;;;;;;5051381;28;20450;-60
2023/02/01 10:58:02;;;;;;;19.47;18.67;;;21.60;43.00;;;;;;5051121;28;20464;-59
2023/02/01 11:00:35;;;;;;;19.07;18.30;;;21.60;43.00;;;;;;5050941;28;20475;-61
2023/02/01 11:03:04;;;;;;;18.80;18.00;;;21.60;43.00;;;;;;5051231;28;20455;-59
2023/02/01 11:05:45;;;;;;;19.03;18.03;;;21.60;43.00;;;;;;5051140;28;20449;-61
2023/02/01 11:08:17;;;;;;;19.80;18.87;;;21.60;43.10;;;;;;5051140;28;20468;-59
2023/02/01 11:10:44;;;;;;;19.23;18.40;;;21.60;43.00;;;;;;5054826;28;20440;-61
2023/02/01 11:13:16;;;;;;;19.37;18.60;;;21.60;43.00;;;;;;5055004;28;20535;-62
2023/02/01 11:15:46;;;;;;;19.10;18.30;;;21.60;43.00;;;;;;5054961;28;20448;-61
2023/02/01 11:18:19;;;;;;;19.50;18.70;;;21.60;43.00;;;;;;5100450;22;20471;-63
2023/02/01 11:20:49;;;;;;;19.43;18.73;;;21.60;43.00;;;;;;5109550;28;20477;-64
2023/02/01 11:23:17;;;;;;;19.20;18.50;;;21.60;43.00;;;;;;5118486;28;20542;-64
2023/02/01 11:25:53;;;;;;;19.00;18.30;;;21.60;43.00;;;;;;5117561;28;20443;-64
2023/02/01 11:28:24;;;;;;;20.13;19.33;;;21.60;43.00;;;;;;5118641;28;20556;-63
2023/02/01 11:30:54;;;;;;;20.53;19.40;;;21.60;42.90;;;;;;5117682;28;20447;-64
2023/02/01 11:33:25;;;;;;;20.00;19.10;;;21.60;42.90;;;;;;5118661;28;20433;-64
2023/02/01 11:35:54;;;;;;;19.27;18.47;;;21.60;43.00;;;;;;5117586;28;20495;-65
2023/02/01 11:38:32;;;;;;;19.60;18.80;;;21.60;43.50;;;;;;5074841;28;20459;-69
2023/02/01 11:41:14;;;;;;;20.10;19.23;;;21.50;45.20;;;;;;5091692;28;20517;-68
2023/02/01 11:43:55;;;;;;;19.33;18.50;;;21.50;44.50;;;;;;5095028;28;20446;-68
2023/02/01 11:46:27;;;;;;;19.30;18.60;;;21.50;44.90;;;;;;5094881;28;20962;-68
2023/02/01 11:48:56;;;;;;;19.53;18.77;;;21.60;44.70;;;;;;5078210;28;20471;-68
2023/02/01 11:51:45;;;;;;;19.00;18.30;;;21.60;44.60;;;;;;5074240;28;20530;-64
2023/02/01 11:54:33;;;;;;;19.50;18.80;;;21.70;45.00;;;;;;5075069;28;20454;-73
2023/02/01 11:57:13;;;;;;;19.40;18.70;;;21.70;44.50;;;;;;5075236;28;20449;-73
2023/02/01 12:00:03;;;;;;;19.77;18.93;;;21.80;44.30;;;;;;5073470;28;20473;-72
2023/02/01 12:03:11;;;;;;;19.37;18.57;;;21.80;44.10;;;;;;5075818;28;20443;-71
2023/02/01 12:05:54;;;;;;;19.10;18.30;;;21.80;43.80;;;;;;5074528;28;20445;-72
2023/02/01 12:08:52;;;;;;;19.60;18.80;;;21.80;43.70;;;;;;5073988;28;20459;-72
2023/02/01 12:11:33;;;;;;;19.90;19.10;;;21.70;43.50;;;;;;5073755;28;20450;-72
2023/02/01 12:14:17;;;;;;;19.20;18.50;;;21.70;43.50;;;;;;5074014;28;20475;-72
2023/02/01 12:16:53;;;;;;;19.70;18.90;;;21.70;43.40;;;;;;5073844;28;20840;-72
2023/02/01 12:19:36;;;;;;;19.73;18.93;;;21.70;43.30;;;;;;5073421;28;20467;-72
2023/02/01 12:22:19;;;;;;;19.30;18.60;;;21.70;43.20;;;;;;5073376;28;20847;-73
2023/02/01 12:25:15;;;;;;;19.00;18.30;;;21.70;43.20;;;;;;5073933;28;20449;-71
2023/02/01 12:28:07;;;;;;;20.17;19.37;;;21.70;43.20;;;;;;5073347;28;20462;-71
2023/02/01 12:30:59;;;;;;;18.80;18.10;;;21.70;43.20;;;;;;5073494;28;20454;-72
2023/02/01 12:33:39;;;;;;;19.30;18.40;;;21.70;43.10;;;;;;5073486;28;20530;-72
2023/02/01 12:36:16;;;;;;;18.90;18.20;;;21.60;43.00;;;;;;5073452;28;20457;-73
2023/02/01 12:38:53;;;;;;;19.13;18.33;;;21.60;43.00;;;;;;5073378;28;20467;-73
2023/02/01 12:41:45;;;;;;;19.40;18.60;;;21.60;43.00;;;;;;5074645;28;20482;-72
2023/02/01 12:44:19;;;;;;;19.43;18.73;;;21.60;43.00;;;;;;5074679;28;20444;-72
2023/02/01 12:46:50;;;;;;;19.23;18.53;;;21.60;43.00;;;;;;5074657;28;20518;-72
2023/02/01 12:49:25;;;;;;;19.40;18.70;;;21.60;42.90;;;;;;5073927;28;20482;-72
2023/02/01 12:51:55;;;;;;;19.33;18.60;;;21.60;42.90;;;;;;5073146;28;20447;-72
2023/02/01 12:54:28;;;;;;;19.77;18.83;;;21.60;42.90;;;;;;5073066;28;20447;-72
2023/02/01 12:57:01;;;;;;;19.40;18.70;;;21.60;42.90;;;;;;5073481;28;20539;-72
2023/02/01 12:59:34;;;;;;;19.93;19.03;;;21.60;42.90;;;;;;5073248;28;20475;-71
2023/02/01 13:02:14;;;;;;;19.30;18.60;;;21.60;42.90;;;;;;5073442;28;20485;-72
2023/02/01 13:04:52;;;;;;;19.13;18.33;;;21.60;42.80;;;;;;5073613;28;20447;-72
2023/02/01 13:07:22;;;;;;;19.30;18.60;;;21.60;42.90;;;;;;5073221;28;20960;-72
2023/02/01 13:09:52;;;;;;;19.10;18.40;;;21.60;42.80;;;;;;5072624;28;20462;-73
2023/02/01 13:12:26;;;;;;;19.40;18.70;;;21.60;42.80;;;;;;5072785;28;20828;-72